Time;durP1;ratioP1;P1;durP2;ratioP2;P2;SDS_P1;SDS_P2;PMS_P1;PMS_P2;Temp;Humidity;BMP_temperature;BMP_pressure;BME280_temperature;BME280_humidity;BME280_pressure;Samples;Min_cycle;Max_cycle;Signal;HPM_P1;HPM_P2
2022/03/08 00:00:15;;;;;;;15.98;13.20;;;;;;;5.46;51.09;101541.27;1771462;79;21062;-78
2022/03/08 00:02:42;;;;;;;17.10;14.07;;;;;;;5.43;51.07;101542.50;1742366;82;21017;-77
2022/03/08 00:05:09;;;;;;;15.78;13.55;;;;;;;5.35;51.19;101541.13;1731026;81;21042;-77
2022/03/08 00:07:37;;;;;;;17.27;14.43;;;;;;;5.34;51.28;101543.67;1729210;81;21027;-77
2022/03/08 00:10:06;;;;;;;17.12;14.33;;;;;;;5.33;51.23;101545.83;1711194;82;21016;-78
2022/03/08 00:12:34;;;;;;;19.15;13.28;;;;;;;5.32;51.19;101547.95;1724810;82;20995;-77
2022/03/08 00:15:00;;;;;;;17.75;13.50;;;;;;;5.34;51.15;101546.25;1723373;82;21007;-77
2022/03/08 00:17:29;;;;;;;17.92;14.43;;;;;;;5.34;50.99;101543.67;1725080;81;21027;-77
2022/03/08 00:19:56;;;;;;;17.05;13.62;;;;;;;5.37;50.92;101548.47;1719443;81;21066;-77
2022/03/08 00:22:24;;;;;;;16.17;13.30;;;;;;;5.41;50.85;101546.78;1703423;82;20998;-77
2022/03/08 00:24:52;;;;;;;16.17;13.20;;;;;;;5.42;50.78;101545.95;1713366;82;21037;-77
2022/03/08 00:27:19;;;;;;;16.17;13.28;;;;;;;5.42;50.64;101542.08;1732043;81;21019;-77
2022/03/08 00:29:46;;;;;;;18.70;14.70;;;;;;;5.44;50.67;101544.25;1728361;82;21007;-76
2022/03/08 00:32:14;;;;;;;16.77;13.55;;;;;;;5.47;50.61;101542.98;1735807;82;21164;-77
2022/03/08 00:34:41;;;;;;;20.92;14.53;;;;;;;5.47;50.58;101541.69;1716141;82;20991;-78
2022/03/08 00:37:08;;;;;;;16.95;13.22;;;;;;;5.47;50.48;101545.56;1721156;82;21003;-77
2022/03/08 00:39:37;;;;;;;17.77;13.78;;;;;;;5.47;50.36;101533.94;1720750;82;21498;-78
2022/03/08 00:42:05;;;;;;;15.43;12.60;;;;;;;5.48;50.37;101538.27;1779549;78;21073;-77
2022/03/08 00:44:32;;;;;;;17.48;13.22;;;;;;;5.48;50.31;101542.14;1766737;79;21036;-77
2022/03/08 00:46:59;;;;;;;14.43;12.47;;;;;;;5.46;49.95;101542.55;1773234;79;21054;-77
2022/03/08 00:49:26;;;;;;;15.72;12.25;;;;;;;5.39;49.96;101539.45;1772901;79;21034;-77
2022/03/08 00:51:54;;;;;;;15.55;12.93;;;;;;;5.31;50.00;101535.91;1782631;79;21114;-77
2022/03/08 00:54:22;;;;;;;14.78;12.30;;;;;;;5.24;50.10;101540.54;1778973;79;21575;-77
2022/03/08 00:56:50;;;;;;;15.35;12.93;;;;;;;5.18;50.21;101535.30;1791851;79;21014;-78
2022/03/08 00:59:17;;;;;;;15.80;12.90;;;;;;;5.14;50.14;101541.28;1777341;79;21073;-77
2022/03/08 01:01:44;;;;;;;14.07;11.63;;;;;;;5.11;50.27;101542.09;1784470;79;20978;-77
2022/03/08 01:04:12;;;;;;;15.88;11.93;;;;;;;5.10;50.21;101536.92;1783675;79;21553;-77
2022/03/08 01:06:42;;;;;;;16.23;13.55;;;;;;;5.07;50.24;101536.91;1772234;79;21580;-77
2022/03/08 01:09:10;;;;;;;16.67;13.58;;;;;;;5.07;50.33;101534.33;1773172;78;21463;-77
2022/03/08 01:11:39;;;;;;;18.45;13.90;;;;;;;5.06;50.27;101532.58;1771911;79;21502;-77
2022/03/08 01:14:08;;;;;;;18.57;13.65;;;;;;;5.09;50.25;101524.89;1793176;79;20987;-77
2022/03/08 01:16:37;;;;;;;16.77;13.83;;;;;;;5.13;50.21;101524.08;1782056;79;20995;-77
2022/03/08 01:19:05;;;;;;;16.20;13.62;;;;;;;5.17;50.19;101525.85;1732713;81;21084;-77
2022/03/08 01:21:35;;;;;;;16.25;13.85;;;;;;;5.19;50.07;101524.16;1731097;82;21026;-77
2022/03/08 01:24:02;;;;;;;17.92;14.63;;;;;;;5.15;50.10;101522.39;1726537;82;21019;-77
2022/03/08 01:26:29;;;;;;;18.75;14.87;;;;;;;5.14;50.12;101530.95;1724986;82;21131;-77
2022/03/08 01:28:56;;;;;;;19.48;15.58;;;;;;;5.15;50.19;101530.12;1722938;81;21157;-77
2022/03/08 01:31:23;;;;;;;18.50;14.95;;;;;;;5.12;50.02;101528.78;1722772;82;21070;-77
2022/03/08 01:33:54;;;;;;;17.57;14.80;;;;;;;5.11;50.07;101536.09;1723417;82;21549;-76
2022/03/08 01:36:23;;;;;;;19.40;15.53;;;;;;;5.14;50.16;101525.80;1714351;82;21107;-77
2022/03/08 01:38:50;;;;;;;17.48;14.53;;;;;;;5.17;49.97;101528.44;1700863;82;21019;-77
2022/03/08 01:41:17;;;;;;;19.50;14.18;;;;;;;5.19;49.83;101531.89;1737502;82;21054;-77
2022/03/08 01:43:45;;;;;;;18.87;14.07;;;;;;;5.20;49.66;101525.88;1729445;82;21085;-77
2022/03/08 01:46:14;;;;;;;18.05;13.83;;;;;;;5.22;49.59;101531.91;1725262;82;21115;-77
2022/03/08 01:48:43;;;;;;;16.97;14.13;;;;;;;5.23;49.55;101529.80;1733876;81;21012;-77
2022/03/08 01:51:13;;;;;;;19.02;14.60;;;;;;;5.26;49.44;101536.27;1735230;81;21055;-78
2022/03/08 01:53:43;;;;;;;16.10;14.40;;;;;;;5.26;49.30;101527.23;1735031;81;21557;-77
2022/03/08 01:56:11;;;;;;;16.80;14.60;;;;;;;5.28;49.24;101531.98;1728066;81;21058;-77
2022/03/08 01:58:38;;;;;;;16.80;13.43;;;;;;;5.29;49.12;101531.16;1730034;81;21014;-77
2022/03/08 02:01:06;;;;;;;17.92;14.00;;;;;;;5.28;48.99;101523.83;1726511;81;21145;-77
2022/03/08 02:03:34;;;;;;;16.67;14.07;;;;;;;5.29;48.87;101532.03;1731690;82;21050;-76
2022/03/08 02:06:01;;;;;;;16.82;13.62;;;;;;;5.29;48.84;101529.87;1725782;82;21557;-76
2022/03/08 02:08:29;;;;;;;18.57;15.10;;;;;;;5.29;48.67;101530.74;1729634;81;21105;-76
2022/03/08 02:10:57;;;;;;;16.90;14.85;;;;;;;5.29;48.54;101531.16;1719406;82;21582;-76
2022/03/08 02:13:26;;;;;;;16.52;14.63;;;;;;;5.28;48.54;101533.28;1728646;82;21023;-76
2022/03/08 02:15:54;;;;;;;18.73;15.10;;;;;;;5.26;48.53;101525.95;1741959;81;21122;-77
2022/03/08 02:18:22;;;;;;;18.10;15.68;;;;;;;5.27;48.51;101538.02;1731993;81;21105;-76
2022/03/08 02:20:49;;;;;;;18.30;14.73;;;;;;;5.26;48.46;101527.23;1729735;82;21073;-76
2022/03/08 02:23:17;;;;;;;16.55;14.75;;;;;;;5.26;48.42;101528.52;1736657;81;21017;-76
2022/03/08 02:25:44;;;;;;;19.42;15.00;;;;;;;5.25;48.41;101528.09;1744510;81;21085;-76
2022/03/08 02:28:11;;;;;;;17.25;15.43;;;;;;;5.24;48.40;101528.52;1755650;81;21087;-76
2022/03/08 02:30:39;;;;;;;20.15;15.95;;;;;;;5.25;48.43;101535.84;1742662;81;21039;-77
2022/03/08 02:33:07;;;;;;;18.92;15.40;;;;;;;5.24;48.44;101537.95;1747032;81;21006;-76
2022/03/08 02:35:34;;;;;;;17.70;15.00;;;;;;;5.23;48.44;101533.66;1734056;81;21005;-76
2022/03/08 02:38:03;;;;;;;17.17;14.23;;;;;;;5.21;48.38;101536.23;1753010;81;21041;-76
2022/03/08 02:40:34;;;;;;;17.57;15.38;;;;;;;5.22;48.41;101534.50;1733223;81;21045;-76
2022/03/08 02:43:01;;;;;;;16.45;14.58;;;;;;;5.20;48.39;101531.91;1727797;82;21006;-76
2022/03/08 02:45:29;;;;;;;18.55;15.18;;;;;;;5.20;48.47;101534.91;1743823;80;21477;-76
2022/03/08 02:47:56;;;;;;;18.42;15.55;;;;;;;5.19;48.42;101540.92;1769347;80;21019;-77
2022/03/08 02:50:23;;;;;;;16.82;14.73;;;;;;;5.17;48.45;101538.75;1764740;81;21011;-76
2022/03/08 02:52:52;;;;;;;18.27;15.20;;;;;;;5.15;48.41;101532.70;1758537;81;21034;-76
2022/03/08 02:55:22;;;;;;;18.87;15.48;;;;;;;5.14;48.52;101536.99;1757210;81;21672;-77
2022/03/08 02:57:49;;;;;;;16.35;14.45;;;;;;;5.13;48.55;101536.98;1753596;81;21034;-76
2022/03/08 03:00:17;;;;;;;16.95;14.70;;;;;;;5.12;48.50;101540.39;1756743;81;21015;-77
2022/03/08 03:02:44;;;;;;;18.62;15.40;;;;;;;5.08;48.51;101541.20;1747984;81;21015;-76
2022/03/08 03:05:11;;;;;;;18.50;16.07;;;;;;;5.06;48.59;101536.45;1758001;81;21034;-76
2022/03/08 03:07:39;;;;;;;16.42;14.65;;;;;;;5.05;48.58;101536.86;1755324;81;21475;-76
2022/03/08 03:10:14;;;;;;;17.82;15.93;;;;;;;5.02;48.62;101538.55;1747691;81;21014;-77
2022/03/08 03:12:40;;;;;;;21.30;15.83;;;;;;;5.00;48.62;101536.37;1742201;80;21537;-77
2022/03/08 03:15:09;;;;;;;18.25;15.45;;;;;;;4.98;48.61;101536.77;1758057;81;21010;-76
2022/03/08 03:17:38;;;;;;;18.15;16.25;;;;;;;4.95;48.57;101533.30;1756288;81;21076;-76
2022/03/08 03:20:07;;;;;;;18.55;14.85;;;;;;;4.93;48.58;101542.73;1752262;80;20959;-76
2022/03/08 03:22:35;;;;;;;18.07;14.63;;;;;;;4.92;48.56;101535.83;1756806;81;21510;-74
2022/03/08 03:25:03;;;;;;;19.70;15.85;;;;;;;4.92;48.62;101544.02;1754917;81;21089;-75
2022/03/08 03:27:31;;;;;;;17.25;14.75;;;;;;;4.89;48.65;101539.67;1756354;81;21066;-76
2022/03/08 03:29:59;;;;;;;20.20;15.72;;;;;;;4.87;48.61;101545.23;1755868;81;21058;-76
2022/03/08 03:32:25;;;;;;;17.02;14.87;;;;;;;4.86;48.66;101546.06;1747693;81;21014;-76
2022/03/08 03:34:52;;;;;;;17.12;15.25;;;;;;;4.86;48.54;101551.22;1754641;81;21505;-76
2022/03/08 03:37:20;;;;;;;18.10;15.60;;;;;;;4.83;48.59;101546.04;1752678;81;21660;-76
2022/03/08 03:39:47;;;;;;;17.70;15.60;;;;;;;4.82;48.47;101546.03;1749446;81;21527;-76
2022/03/08 03:42:15;;;;;;;20.00;15.15;;;;;;;4.81;48.56;101546.44;1748341;81;21060;-76
2022/03/08 03:44:42;;;;;;;18.82;16.35;;;;;;;4.80;48.55;101538.24;1757773;81;21030;-75
2022/03/08 03:47:09;;;;;;;20.05;16.27;;;;;;;4.79;48.53;101546.84;1781691;79;21084;-76
2022/03/08 03:49:37;;;;;;;18.95;15.32;;;;;;;4.78;48.57;101542.52;1766499;80;21487;-76
2022/03/08 03:52:05;;;;;;;18.10;15.30;;;;;;;4.77;48.66;101542.09;1771607;79;21467;-75
2022/03/08 03:54:32;;;;;;;19.40;15.75;;;;;;;4.76;48.60;101536.47;1791676;79;21775;-75
2022/03/08 03:56:59;;;;;;;21.35;16.20;;;;;;;4.75;48.59;101541.61;1774961;79;21565;-76
2022/03/08 03:59:26;;;;;;;19.32;15.68;;;;;;;4.74;48.53;101545.89;1767279;79;21502;-76
2022/03/08 04:01:53;;;;;;;17.80;14.98;;;;;;;4.71;48.58;101546.28;1764010;79;21668;-76
2022/03/08 04:04:20;;;;;;;18.30;15.83;;;;;;;4.68;48.68;101543.23;1767341;80;21466;-76
2022/03/08 04:06:47;;;;;;;18.98;15.70;;;;;;;4.67;48.70;101549.66;1713545;82;21038;-75
2022/03/08 04:09:15;;;;;;;17.70;15.78;;;;;;;4.64;48.77;101549.19;1726728;82;21063;-76
2022/03/08 04:11:42;;;;;;;18.35;15.93;;;;;;;4.63;48.78;101548.76;1737719;80;21036;-76
2022/03/08 04:14:09;;;;;;;19.82;16.80;;;;;;;4.63;48.82;101550.05;1793038;79;21039;-76
2022/03/08 04:16:38;;;;;;;21.37;17.00;;;;;;;4.61;48.87;101549.16;1763306;80;21045;-76
2022/03/08 04:19:06;;;;;;;18.92;16.07;;;;;;;4.61;48.86;101546.58;1754298;79;21517;-75
2022/03/08 04:21:34;;;;;;;19.40;16.17;;;;;;;4.60;48.86;101549.98;1768031;80;21478;-76
2022/03/08 04:24:01;;;;;;;19.32;15.98;;;;;;;4.60;48.83;101548.70;1765253;79;21491;-76
2022/03/08 04:26:28;;;;;;;19.12;16.17;;;;;;;4.58;48.85;101545.23;1763822;79;21003;-76
2022/03/08 04:28:55;;;;;;;19.50;16.20;;;;;;;4.59;48.90;101544.81;1766653;80;21075;-76
2022/03/08 04:31:22;;;;;;;19.57;16.95;;;;;;;4.58;48.98;101543.94;1710147;83;21035;-76
2022/03/08 04:33:50;;;;;;;18.42;15.88;;;;;;;4.60;48.96;101542.67;1704652;82;21127;-76
2022/03/08 04:36:17;;;;;;;25.10;16.67;;;;;;;4.59;48.96;101546.98;1714118;82;21085;-76
2022/03/08 04:38:44;;;;;;;21.60;17.00;;;;;;;4.59;49.05;101545.69;1724412;82;21077;-76
2022/03/08 04:41:11;;;;;;;20.70;16.52;;;;;;;4.60;49.12;101551.27;1726148;82;21108;-76
2022/03/08 04:43:38;;;;;;;24.43;17.23;;;;;;;4.61;49.16;101551.73;1783234;79;20995;-76
2022/03/08 04:46:06;;;;;;;20.85;16.77;;;;;;;4.63;49.15;101553.91;1787915;79;21037;-75
2022/03/08 04:48:33;;;;;;;20.90;16.90;;;;;;;4.64;49.08;101549.19;1771495;79;21483;-75
2022/03/08 04:51:00;;;;;;;22.48;16.97;;;;;;;4.64;49.02;101547.02;1757825;79;20994;-75
2022/03/08 04:53:28;;;;;;;20.72;17.05;;;;;;;4.66;49.06;101554.36;1771181;79;21459;-76
2022/03/08 04:55:56;;;;;;;22.20;18.48;;;;;;;4.66;49.18;101555.64;1771999;80;21098;-75
2022/03/08 04:58:23;;;;;;;20.27;16.62;;;;;;;4.65;49.09;101550.94;1770717;79;20990;-75
2022/03/08 05:00:50;;;;;;;20.37;17.70;;;;;;;4.67;49.06;101553.11;1776924;79;21006;-75
2022/03/08 05:03:17;;;;;;;20.17;17.67;;;;;;;4.67;49.07;101546.67;1763919;79;20983;-76
2022/03/08 05:05:44;;;;;;;21.33;17.67;;;;;;;4.67;49.11;101553.53;1776865;80;21002;-76
2022/03/08 05:08:14;;;;;;;20.43;17.85;;;;;;;4.67;49.20;101551.83;1769820;79;21023;-76
2022/03/08 05:10:41;;;;;;;19.50;17.12;;;;;;;4.68;49.29;101544.52;1771133;79;21078;-76
2022/03/08 05:13:10;;;;;;;21.25;17.82;;;;;;;4.69;49.28;101554.00;1784571;79;21074;-76
2022/03/08 05:15:39;;;;;;;22.82;18.37;;;;;;;4.71;49.30;101551.02;1787538;79;21089;-77
2022/03/08 05:18:06;;;;;;;20.30;17.67;;;;;;;4.74;49.30;101553.62;1778085;79;20974;-75
2022/03/08 05:20:33;;;;;;;20.40;17.07;;;;;;;4.76;49.30;101546.78;1749882;80;21053;-75
2022/03/08 05:23:01;;;;;;;20.90;18.12;;;;;;;4.78;49.35;101547.67;1784496;79;21011;-76
2022/03/08 05:25:29;;;;;;;21.45;17.90;;;;;;;4.80;49.41;101545.98;1777985;79;21467;-76
2022/03/08 05:27:57;;;;;;;22.45;18.62;;;;;;;4.84;49.45;101559.36;1781039;78;21029;-76
2022/03/08 05:30:24;;;;;;;23.83;17.85;;;;;;;4.85;49.29;101566.68;1779785;79;21038;-76
2022/03/08 05:32:51;;;;;;;21.48;18.35;;;;;;;4.86;49.25;101562.82;1784898;79;20999;-76
2022/03/08 05:35:18;;;;;;;21.80;18.00;;;;;;;4.86;49.38;101561.98;1772598;79;20999;-76
2022/03/08 05:37:45;;;;;;;24.05;18.95;;;;;;;4.86;49.60;101554.25;1784800;79;21471;-76
2022/03/08 05:40:12;;;;;;;22.67;19.02;;;;;;;4.87;49.81;101559.41;1754644;80;21045;-76
2022/03/08 05:42:39;;;;;;;20.10;17.67;;;;;;;4.92;50.08;101559.04;1768456;80;21054;-76
2022/03/08 05:45:07;;;;;;;24.40;19.00;;;;;;;5.00;50.16;101557.00;1792506;79;21077;-76
2022/03/08 05:47:36;;;;;;;21.57;18.15;;;;;;;5.06;50.11;101546.34;1761338;79;21051;-76
2022/03/08 05:50:04;;;;;;;20.92;17.45;;;;;;;5.11;50.27;101556.28;1778867;79;21011;-76
2022/03/08 05:52:31;;;;;;;21.68;18.82;;;;;;;5.19;50.37;101544.80;1782560;79;21029;-75
2022/03/08 05:54:58;;;;;;;24.18;19.35;;;;;;;5.28;50.32;101550.05;1774849;79;21031;-76
2022/03/08 05:57:25;;;;;;;22.67;18.52;;;;;;;5.34;50.29;101544.96;1765794;80;21557;-77
2022/03/08 05:59:53;;;;;;;21.65;17.95;;;;;;;5.39;50.23;101549.77;1761768;80;21028;-76
2022/03/08 06:02:21;;;;;;;21.42;18.90;;;;;;;5.39;50.21;101551.06;1774344;79;21109;-76
2022/03/08 06:04:48;;;;;;;21.05;17.25;;;;;;;5.39;50.46;101556.22;1768641;80;21077;-76
2022/03/08 06:07:15;;;;;;;20.43;17.07;;;;;;;5.43;50.46;101555.41;1766810;80;21023;-76
2022/03/08 06:09:42;;;;;;;20.60;18.45;;;;;;;5.51;50.52;101560.23;1768296;80;21012;-76
2022/03/08 06:12:10;;;;;;;20.75;18.00;;;;;;;5.58;50.53;101559.47;1763567;80;21497;-76
2022/03/08 06:14:38;;;;;;;20.65;17.37;;;;;;;5.65;50.44;101554.80;1766196;79;21064;-76
2022/03/08 06:17:07;;;;;;;22.32;18.45;;;;;;;5.72;50.47;101557.48;1762860;80;21085;-76
2022/03/08 06:19:35;;;;;;;20.43;17.57;;;;;;;5.83;50.39;101558.89;1770456;79;22204;-76
2022/03/08 06:22:03;;;;;;;21.45;18.20;;;;;;;5.94;50.25;101550.83;1771811;80;21683;-76
2022/03/08 06:24:31;;;;;;;21.10;17.77;;;;;;;6.08;50.30;101545.36;1778728;79;21002;-77
2022/03/08 06:26:59;;;;;;;19.60;16.85;;;;;;;6.28;49.96;101559.34;1776273;79;20996;-77
2022/03/08 06:29:26;;;;;;;20.15;17.67;;;;;;;6.46;49.47;101571.12;1772617;80;21039;-77
2022/03/08 06:31:53;;;;;;;20.15;18.05;;;;;;;6.61;49.31;101569.50;1764136;80;21409;-78
2022/03/08 06:34:20;;;;;;;19.15;16.75;;;;;;;6.78;48.85;101570.49;1787375;79;21037;-78
2022/03/08 06:36:47;;;;;;;18.57;16.35;;;;;;;6.94;48.52;101564.55;1798406;79;20999;-77
2022/03/08 06:39:14;;;;;;;19.12;16.95;;;;;;;7.09;48.24;101565.95;1767283;79;21039;-77
2022/03/08 06:41:42;;;;;;;19.90;17.77;;;;;;;7.11;48.14;101562.94;1786611;79;21048;-78
2022/03/08 06:44:09;;;;;;;19.02;15.83;;;;;;;7.07;48.16;101568.92;1795691;79;21007;-77
2022/03/08 06:46:38;;;;;;;17.00;15.30;;;;;;;7.00;48.18;101573.64;1772228;79;21500;-77
2022/03/08 06:49:05;;;;;;;17.48;15.40;;;;;;;6.97;48.27;101573.61;1715764;82;21030;-78
2022/03/08 06:51:32;;;;;;;17.35;14.93;;;;;;;6.98;48.32;101575.36;1779774;79;20974;-78
2022/03/08 06:53:59;;;;;;;16.95;14.87;;;;;;;6.99;48.49;101573.19;1761027;80;20983;-78
2022/03/08 06:56:27;;;;;;;16.48;14.63;;;;;;;7.02;48.32;101568.05;1791490;79;20990;-78
2022/03/08 06:58:54;;;;;;;15.55;13.75;;;;;;;7.04;48.24;101575.39;1776456;79;20995;-78
2022/03/08 07:01:21;;;;;;;15.28;13.55;;;;;;;7.04;48.37;101576.69;1784208;79;20998;-79
2022/03/08 07:03:48;;;;;;;17.12;14.90;;;;;;;7.10;48.41;101580.17;1784249;79;21042;-78
2022/03/08 07:06:17;;;;;;;16.52;14.40;;;;;;;7.17;48.23;101582.37;1729717;82;21025;-78
2022/03/08 07:08:44;;;;;;;15.53;13.80;;;;;;;7.18;48.20;101577.62;1731398;82;21111;-77
2022/03/08 07:11:11;;;;;;;16.48;13.65;;;;;;;7.22;48.23;101579.36;1744056;82;21101;-78
2022/03/08 07:13:38;;;;;;;15.30;13.75;;;;;;;7.31;48.22;101579.42;1790754;79;21033;-77
2022/03/08 07:16:06;;;;;;;16.32;13.32;;;;;;;7.41;48.12;101573.42;1771934;79;21051;-78
2022/03/08 07:18:33;;;;;;;14.28;12.78;;;;;;;7.52;47.31;101580.81;1775483;80;20998;-78
2022/03/08 07:21:02;;;;;;;15.40;13.20;;;;;;;7.47;46.78;101573.44;1782008;79;21042;-77
2022/03/08 07:23:29;;;;;;;16.17;13.55;;;;;;;7.40;47.16;101580.73;1788624;79;21010;-78
2022/03/08 07:25:56;;;;;;;16.85;13.90;;;;;;;7.34;47.47;101578.12;1788837;78;20958;-78
2022/03/08 07:28:23;;;;;;;16.73;13.93;;;;;;;7.28;47.55;101581.98;1776969;79;21475;-78
2022/03/08 07:30:51;;;;;;;16.23;13.95;;;;;;;7.18;47.43;101581.50;1782399;78;20978;-78
2022/03/08 07:33:18;;;;;;;15.63;13.98;;;;;;;7.05;47.79;101580.98;1781082;79;21131;-79
2022/03/08 07:35:45;;;;;;;15.63;14.03;;;;;;;6.99;48.02;101581.83;1779828;79;21076;-77
2022/03/08 07:38:12;;;;;;;15.98;14.18;;;;;;;7.00;48.24;101587.88;1772094;78;21011;-78
2022/03/08 07:40:39;;;;;;;16.75;15.00;;;;;;;7.02;48.11;101582.28;1753456;79;21011;-78
2022/03/08 07:43:08;;;;;;;17.37;14.28;;;;;;;7.01;48.27;101584.41;1771836;79;21507;-78
2022/03/08 07:45:36;;;;;;;17.27;15.43;;;;;;;7.04;48.14;101584.45;1778898;78;21528;-78
2022/03/08 07:48:07;;;;;;;18.55;15.83;;;;;;;7.01;48.27;101584.41;1726801;82;21495;-78
2022/03/08 07:50:38;;;;;;;16.90;14.20;;;;;;;7.02;48.46;101580.56;1712214;81;21062;-79
2022/03/08 07:53:05;;;;;;;16.97;15.17;;;;;;;7.07;47.73;101583.16;1716462;81;21501;-78
2022/03/08 07:55:32;;;;;;;15.00;13.38;;;;;;;7.04;47.43;101577.55;1732630;81;21035;-78
2022/03/08 07:58:00;;;;;;;18.65;14.13;;;;;;;7.01;47.60;101583.13;1786541;79;20995;-78
2022/03/08 08:00:28;;;;;;;19.80;16.70;;;;;;;7.01;47.77;101587.00;1775494;79;21066;-78
2022/03/08 08:02:55;;;;;;;16.85;14.95;;;;;;;7.03;47.77;101584.00;1763123;80;20999;-78
2022/03/08 08:05:23;;;;;;;16.77;14.93;;;;;;;6.98;47.89;101577.94;1786906;78;21065;-78
2022/03/08 08:07:52;;;;;;;16.90;14.73;;;;;;;7.04;48.25;101580.56;1778345;79;21058;-78
2022/03/08 08:10:19;;;;;;;17.48;14.60;;;;;;;7.09;47.81;101575.00;1736397;82;21108;-79
2022/03/08 08:12:47;;;;;;;15.95;13.55;;;;;;;7.13;47.48;101570.28;1726162;81;21027;-78
2022/03/08 08:15:15;;;;;;;15.98;13.88;;;;;;;7.12;47.47;101569.83;1731231;81;21074;-78
2022/03/08 08:17:43;;;;;;;14.95;13.25;;;;;;;7.12;47.33;101565.94;1733752;81;21051;-78
2022/03/08 08:20:11;;;;;;;16.02;14.18;;;;;;;7.14;47.43;101576.75;1712322;83;21081;-77
2022/03/08 08:22:39;;;;;;;15.18;13.45;;;;;;;7.17;47.81;101576.75;1773835;79;21363;-78
2022/03/08 08:25:08;;;;;;;15.60;13.43;;;;;;;7.22;47.42;101575.48;1790221;79;21054;-78
2022/03/08 08:27:37;;;;;;;15.28;12.70;;;;;;;7.26;47.70;101571.63;1790246;79;21056;-78
2022/03/08 08:30:06;;;;;;;15.75;12.65;;;;;;;7.38;47.43;101570.38;1774346;79;21787;-78
2022/03/08 08:32:35;;;;;;;16.77;14.10;;;;;;;7.48;47.15;101575.16;1785294;79;21040;-78
2022/03/08 08:35:03;;;;;;;17.75;12.82;;;;;;;7.50;46.82;101566.96;1784475;79;20989;-78
2022/03/08 08:37:31;;;;;;;15.03;12.60;;;;;;;7.51;46.90;101566.54;1782709;79;21007;-78
2022/03/08 08:39:58;;;;;;;13.53;11.88;;;;;;;7.54;46.53;101570.03;1782795;79;21517;-78
2022/03/08 08:42:25;;;;;;;13.38;11.12;;;;;;;7.59;46.59;101570.89;1776912;79;21005;-78
2022/03/08 08:44:52;;;;;;;13.55;9.98;;;;;;;7.66;46.32;101564.89;1778330;79;21033;-78
2022/03/08 08:47:20;;;;;;;13.70;11.05;;;;;;;7.72;45.57;101559.72;1771652;79;21868;-79
2022/03/08 08:49:47;;;;;;;13.30;11.00;;;;;;;7.82;45.62;101561.89;1728448;82;21098;-77
2022/03/08 08:52:15;;;;;;;12.45;10.72;;;;;;;7.93;45.95;101559.74;1727953;82;21074;-77
2022/03/08 08:54:46;;;;;;;12.15;10.60;;;;;;;8.05;45.61;101566.69;1714858;82;21075;-78
2022/03/08 08:57:12;;;;;;;11.57;9.93;;;;;;;8.10;45.10;101558.05;1769436;80;20999;-78
2022/03/08 08:59:40;;;;;;;11.85;10.00;;;;;;;8.15;44.77;101560.23;1786567;79;21066;-78
2022/03/08 09:02:07;;;;;;;10.32;8.88;;;;;;;8.13;44.54;101559.36;1783732;79;21007;-78
2022/03/08 09:04:35;;;;;;;11.78;9.75;;;;;;;8.14;44.62;101556.31;1768054;80;21032;-78
2022/03/08 09:07:04;;;;;;;13.22;9.35;;;;;;;8.13;44.29;101560.66;1772763;79;21121;-78
2022/03/08 09:09:31;;;;;;;14.45;9.35;;;;;;;8.10;44.16;101554.16;1778074;79;21061;-78
2022/03/08 09:11:58;;;;;;;10.63;8.75;;;;;;;8.11;44.42;101554.61;1765384;80;21013;-79
2022/03/08 09:14:27;;;;;;;10.35;9.23;;;;;;;8.15;44.45;101559.36;1772961;79;21050;-79
2022/03/08 09:16:55;;;;;;;11.20;9.00;;;;;;;8.17;43.98;101558.92;1769626;80;21553;-78
2022/03/08 09:19:22;;;;;;;10.70;9.60;;;;;;;8.19;43.90;101558.06;1779570;79;21007;-78
2022/03/08 09:21:50;;;;;;;9.83;8.10;;;;;;;8.21;44.13;101558.94;1766970;78;21015;-78
2022/03/08 09:24:17;;;;;;;10.23;8.55;;;;;;;8.28;43.84;101561.56;1764558;80;21001;-77
2022/03/08 09:26:44;;;;;;;10.60;8.98;;;;;;;8.26;43.66;101560.27;1766200;80;20947;-78
2022/03/08 09:29:11;;;;;;;10.80;8.83;;;;;;;8.26;43.86;101558.11;1771819;80;21122;-79
2022/03/08 09:31:38;;;;;;;11.70;8.83;;;;;;;8.24;43.55;101563.27;1777592;79;21050;-78
2022/03/08 09:34:06;;;;;;;12.23;10.23;;;;;;;8.16;43.79;101567.58;1715258;82;21029;-79
2022/03/08 09:36:33;;;;;;;12.40;9.35;;;;;;;8.07;43.80;101563.25;1781752;79;21006;-78
2022/03/08 09:39:01;;;;;;;9.63;8.33;;;;;;;7.97;44.17;101560.64;1780260;79;21014;-78
2022/03/08 09:41:28;;;;;;;10.60;8.55;;;;;;;7.92;43.88;101563.21;1780988;79;21039;-78
2022/03/08 09:43:56;;;;;;;8.83;7.92;;;;;;;7.86;43.81;101561.91;1774236;79;20982;-78
2022/03/08 09:46:23;;;;;;;8.90;8.00;;;;;;;7.79;43.97;101565.33;1777133;79;20991;-78
2022/03/08 09:48:50;;;;;;;9.33;7.75;;;;;;;7.73;43.61;101564.48;1795016;79;21022;-78
2022/03/08 09:51:17;;;;;;;11.28;7.17;;;;;;;7.71;44.30;101567.04;1777876;79;20989;-79
2022/03/08 09:53:44;;;;;;;8.50;7.17;;;;;;;7.72;43.84;101564.90;1773175;80;22326;-78
2022/03/08 09:56:12;;;;;;;15.03;7.78;;;;;;;7.74;44.22;101559.71;1766769;78;21073;-78
2022/03/08 09:58:40;;;;;;;8.05;7.12;;;;;;;7.84;44.33;101559.74;1767566;78;20998;-78
2022/03/08 10:01:07;;;;;;;8.35;6.10;;;;;;;7.94;44.19;101553.71;1777409;79;21561;-78
2022/03/08 10:03:42;;;;;;;7.05;6.17;;;;;;;8.02;43.36;101546.81;1780191;79;21634;-78
2022/03/08 10:06:09;;;;;;;7.87;6.78;;;;;;;8.08;43.01;101550.70;1781943;79;21053;-78
2022/03/08 10:08:38;;;;;;;8.53;7.72;;;;;;;8.10;43.56;101554.58;1764413;79;21580;-78
2022/03/08 10:11:11;;;;;;;10.78;7.72;;;;;;;8.12;43.72;101538.17;1751069;80;21041;-78
2022/03/08 10:13:47;;;;;;;7.60;6.60;;;;;;;8.19;44.07;101542.52;1763590;79;20982;-78
2022/03/08 10:16:41;;;;;;;8.98;7.12;;;;;;;8.31;43.56;101538.20;1749411;80;21602;-78
2022/03/08 10:18:58;;;;;;;;;;;;;;;8.38;43.23;101537.36;1718463;82;21093;-78
2022/03/08 10:21:32;;;;;;;8.15;5.78;;;;;;;8.41;42.83;101534.78;1724776;82;20451;-78
2022/03/08 10:24:24;;;;;;;10.93;7.58;;;;;;;8.41;42.71;101539.96;1700654;82;21052;-78
2022/03/08 10:27:00;;;;;;;7.00;6.12;;;;;;;8.40;42.98;101534.33;1698417;82;21027;-78
2022/03/08 10:29:33;;;;;;;11.80;7.92;;;;;;;8.43;43.13;101528.70;1698528;82;21020;-78
2022/03/08 10:32:17;;;;;;;8.95;6.17;;;;;;;8.47;43.19;101530.88;1695404;82;21080;-78
2022/03/08 10:34:44;;;;;;;7.87;6.00;;;;;;;8.45;43.13;101530.02;1651169;84;21048;-78
2022/03/08 10:37:20;;;;;;;6.47;5.78;;;;;;;8.44;43.04;101530.44;1652967;84;21044;-79
2022/03/08 10:39:57;;;;;;;9.45;7.45;;;;;;;8.44;42.94;101521.79;1655355;84;21044;-78
2022/03/08 10:42:30;;;;;;;9.93;7.42;;;;;;;8.42;43.40;101524.39;1668959;85;21144;-78
2022/03/08 10:45:15;;;;;;;7.58;6.70;;;;;;;8.36;42.89;101520.94;1642474;86;21111;-78
2022/03/08 10:50:18;;;;;;;7.75;6.53;;;;;;;8.15;43.64;101525.23;1502373;94;21575;-78
2022/03/08 10:52:47;;;;;;;12.03;8.50;;;;;;;8.15;43.93;101525.23;1497606;94;21118;-78
2022/03/08 10:55:20;;;;;;;10.10;7.72;;;;;;;8.16;44.24;101523.52;1490517;95;21214;-78
2022/03/08 10:58:08;;;;;;;13.55;7.87;;;;;;;8.19;44.66;101511.41;1491834;93;21178;-78
2022/03/08 11:00:51;;;;;;;12.80;7.35;;;;;;;8.28;44.49;101509.70;1496409;93;21125;-78
2022/03/08 11:03:21;;;;;;;10.68;7.03;;;;;;;8.31;43.96;101505.80;1494485;93;21221;-78
2022/03/08 11:05:50;;;;;;;10.20;7.17;;;;;;;8.30;43.64;101506.25;1502204;93;21113;-78
2022/03/08 11:08:18;;;;;;;9.95;7.37;;;;;;;8.26;43.75;101507.55;1511819;94;21208;-78
2022/03/08 11:10:45;;;;;;;9.90;7.30;;;;;;;8.21;44.08;101501.90;1498636;95;21573;-78
2022/03/08 11:13:15;;;;;;;9.28;7.92;;;;;;;8.18;43.95;101499.29;1474674;93;21624;-78
2022/03/08 11:15:43;;;;;;;8.30;7.33;;;;;;;8.11;43.93;101502.77;1464198;97;21113;-78
2022/03/08 11:18:12;;;;;;;9.03;7.62;;;;;;;8.05;44.20;101494.99;1464689;96;21725;-78
2022/03/08 11:20:42;;;;;;;11.12;8.50;;;;;;;8.04;44.37;101492.38;1471849;96;21073;-78
2022/03/08 11:23:10;;;;;;;10.82;9.05;;;;;;;7.99;44.81;101484.63;1456388;96;21596;-77
2022/03/08 11:25:44;;;;;;;10.03;7.65;;;;;;;8.02;45.21;101493.68;1485713;94;21136;-78